Iowa Falls, IA (50126)

9:46 AM CDT on October 23, 2014 (GMT -0500)
Jensen Farm | Change Station
CLOSE
Current Station
Personal Weather Station
Location: Iowa Falls, IA
Elevation: 1129 ft
Nearby Weather Stations

Elev 1129 ft 42.50 °N, 93.20 °W | Updated 36 seconds ago

Overcast
Overcast
49.2 °F
Feels Like 47 °F
N
5.0
Wind Variable Wind from SSE
Gusts 6.0 mph

Today
High -- | Low -- °F
--% Chance of Precip.
Yesterday
High -- | Low -- °F
Precip. -- in
7:35 AM 6:18 PM
Waning Crescent, 0% visible
Pressure 30.04 in
Visibility 10.0 miles
Clouds Overcast 900 ft
Windchill 47 °F
Dew Point 48 °F
Humidity 97%
Rainfall 0.54 in
Snow Depth Not available.
UV 0 out of 12
Pollen .30 out of 12
Air Quality Not available.
Flu Activity Sporadic
METAR KIFA 231355Z AUTO 17004KT 10SM OVC009 10/09 A3004 RMK AO2 T00950087

More Conditions Fewer Conditions

Pressure 30.04 in
Visibility 10.0 miles
Clouds Overcast 900 ft
Windchill 47 °F
Dew Point 48 °F
Humidity 97%
Rainfall 0.54 in
Snow Depth Not available.
UV 0 out of 12
Pollen .30 out of 12
Air Quality Not available.
Flu Activity Sporadic
METAR KIFA 231355Z AUTO 17004KT 10SM OVC009 10/09 A3004 RMK AO2 T00950087

More Conditions Fewer Conditions

10-Day Weather Forecast

Almanac

Astronomy

Oct. 23, 2014 Rise Set
Actual Time 7:35 AM CDT 6:18 PM CDT
Civil Twilight 7:06 AM CDT 6:47 PM CDT
Nautical Twilight 6:34 AM CDT 7:20 PM CDT
Astronomical Twilight 6:01 AM CDT 7:52 PM CDT
Moon 7:15 AM CDT 6:20 PM CDT
Length of Visible Light 11h 40m
Length of Day
10h 42m
Tomorrow will be 2m 40s shorter.
Waning Crescent, 0% of the Moon is Illuminated
Today
Waning Crescent
Oct 23
New
Oct 30
First Quarter
Nov 6
Full
Nov 14
Last Quarter

Today's Extremes

State Highs State Lows

Community

WunderPhotos

Upload Photos

1,764,272 photos uploaded!

WunderBlogs® & News

Nearby

Snow Depth

Station Depth Elevation
No new snow has been reported.

Earthquake Activity

City Distance Mag. Time & Date
No recent earthquake activity has been reported nearby.
Minimum magnitude displayed is 2.5.

Coastal Water Temperatures

Place Temperature
No Stations Reporting

Nearby Weather Stations